Time;durP1;ratioP1;P1;durP2;ratioP2;P2;SDS_P1;SDS_P2;PMS_P1;PMS_P2;Temp;Humidity;BMP_temperature;BMP_pressure;BME280_temperature;BME280_humidity;BME280_pressure;Samples;Min_cycle;Max_cycle;Signal;HPM_P1;HPM_P2
2022/12/11 00:00:29;;;;;;;15.38;9.13;;;;;;;28.62;53.60;100953.19;5051449;28;69391;-32
2022/12/11 00:03:00;;;;;;;15.93;8.57;;;;;;;28.67;53.84;100956.13;5049658;28;65390;-32
2022/12/11 00:05:31;;;;;;;9.68;8.73;;;;;;;28.60;54.58;100949.88;5050527;28;69911;-33
2022/12/11 00:08:02;;;;;;;16.70;9.02;;;;;;;28.72;54.99;100970.69;5054465;28;65716;-32
2022/12/11 00:10:35;;;;;;;11.43;9.52;;;;;;;28.76;54.74;100971.09;5051498;28;70401;-32
2022/12/11 00:13:06;;;;;;;14.18;9.25;;;;;;;28.78;54.84;100979.81;5052969;28;65695;-32
2022/12/11 00:15:38;;;;;;;13.50;9.13;;;;;;;28.81;55.33;100987.50;5052474;28;70161;-31
2022/12/11 00:18:13;;;;;;;10.75;9.48;;;;;;;28.47;55.38;100940.69;5053790;28;65334;-30
2022/12/11 00:20:44;;;;;;;15.20;9.88;;;;;;;28.80;55.79;100988.53;5058707;28;69330;-32
2022/12/11 00:23:16;;;;;;;11.73;9.80;;;;;;;28.87;55.87;101002.91;5066740;27;66567;-31
2022/12/11 00:25:48;;;;;;;14.60;10.15;;;;;;;28.86;55.88;101005.78;5051789;28;70322;-31
2022/12/11 00:28:20;;;;;;;15.70;10.77;;;;;;;28.89;56.54;101008.94;5056170;28;66547;-33
2022/12/11 00:30:51;;;;;;;32.15;15.68;;;;;;;28.91;61.26;101017.63;5054487;28;69574;-32
2022/12/11 00:33:22;;;;;;;32.30;18.88;;;;;;;28.95;63.53;101016.22;5056949;28;67250;-33
2022/12/11 00:35:54;;;;;;;37.17;20.58;;;;;;;28.98;65.24;101020.38;5058193;28;69178;-33
2022/12/11 00:38:25;;;;;;;35.10;20.60;;;;;;;29.01;65.91;101027.22;5049174;28;65870;-37
2022/12/11 00:40:59;;;;;;;35.15;19.90;;;;;;;29.04;66.67;101035.78;5054905;28;70109;-34
2022/12/11 00:43:31;;;;;;;32.70;19.58;;;;;;;29.06;67.29;101032.88;5048615;28;66094;-32
2022/12/11 00:46:02;;;;;;;29.50;19.47;;;;;;;29.07;64.71;101037.25;5051119;28;69301;-32
2022/12/11 00:48:34;;;;;;;27.75;17.63;;;;;;;29.03;62.81;101035.94;5050760;28;66419;-33
2022/12/11 00:51:05;;;;;;;23.60;15.50;;;;;;;29.10;62.53;101036.84;5056177;28;70168;-31
2022/12/11 00:53:38;;;;;;;24.70;15.60;;;;;;;29.05;62.91;101025.81;5051904;28;66087;-32
2022/12/11 00:56:14;;;;;;;33.50;15.85;;;;;;;28.82;62.23;100989.16;5054313;28;70015;-33
2022/12/11 00:58:47;;;;;;;21.23;14.98;;;;;;;29.15;62.59;101028.97;5048399;28;66072;-32
2022/12/11 01:01:22;;;;;;;22.35;16.17;;;;;;;29.25;62.20;101055.56;5053044;28;69600;-33
2022/12/11 01:03:53;;;;;;;20.20;15.13;;;;;;;29.25;62.84;101050.97;5050446;28;66305;-32
2022/12/11 01:06:27;;;;;;;25.05;14.90;;;;;;;29.27;63.21;101048.09;5049728;28;69006;-33
2022/12/11 01:11:47;;;;;;;19.63;14.20;;;;;;;29.29;63.36;101046.84;5051203;28;69281;-33
2022/12/11 01:14:18;;;;;;;19.02;14.25;;;;;;;29.32;63.59;101051.00;5053865;28;65872;-33
2022/12/11 01:16:50;;;;;;;19.17;14.13;;;;;;;29.27;62.96;101035.41;5051743;28;69234;-33
2022/12/11 01:19:21;;;;;;;22.98;14.80;;;;;;;29.33;63.54;101053.50;5054811;28;63997;-32
2022/12/11 01:21:53;;;;;;;25.00;14.25;;;;;;;29.36;63.58;101053.09;5040103;28;70504;-33
2022/12/11 01:24:24;;;;;;;19.73;13.37;;;;;;;29.38;63.08;101053.72;5053425;28;66489;-35
2022/12/11 01:26:55;;;;;;;29.40;17.20;;;;;;;29.39;66.96;101052.69;5055525;28;70077;-33
2022/12/11 01:29:26;;;;;;;28.95;17.17;;;;;;;29.39;66.75;101051.84;5051792;28;66372;-34
2022/12/11 01:31:57;;;;;;;26.95;16.92;;;;;;;29.35;67.59;101056.81;5050546;28;69173;-33
2022/12/11 01:34:30;;;;;;;42.80;20.10;;;;;;;29.26;65.64;101047.25;5052202;28;66410;-33
2022/12/11 01:37:01;;;;;;;54.45;22.52;;;;;;;29.19;66.28;101038.28;5054510;28;70016;-37
2022/12/11 01:39:32;;;;;;;59.13;22.63;;;;;;;29.12;65.64;101035.59;5053032;28;65486;-37
2022/12/11 01:42:05;;;;;;;40.37;22.60;;;;;;;29.10;65.50;101036.84;5054216;28;69870;-40
2022/12/11 01:44:36;;;;;;;51.28;23.20;;;;;;;29.19;65.58;101051.81;5049700;28;66143;-36
2022/12/11 01:47:07;;;;;;;57.63;21.30;;;;;;;29.20;65.01;101063.44;5052068;28;69230;-36
2022/12/11 01:49:40;;;;;;;48.20;20.75;;;;;;;29.15;66.24;101050.56;5053399;28;66394;-32
2022/12/11 01:52:20;;;;;;;35.78;19.23;;;;;;;29.16;66.49;101055.75;5052670;28;70114;-37
2022/12/11 01:54:51;;;;;;;32.60;18.10;;;;;;;29.20;64.16;101053.50;5051160;28;64199;-35
2022/12/11 01:57:23;;;;;;;22.45;15.80;;;;;;;29.23;64.11;101057.66;5048562;28;69311;-36
2022/12/11 01:59:55;;;;;;;19.17;15.20;;;;;;;29.30;63.75;101066.59;5051907;28;66265;-35
2022/12/11 02:02:29;;;;;;;19.35;14.50;;;;;;;29.37;63.07;101065.56;5053396;28;69588;-36
2022/12/11 02:05:05;;;;;;;21.05;14.55;;;;;;;29.40;62.96;101067.84;5058667;28;66287;-36
2022/12/11 02:07:45;;;;;;;22.88;14.68;;;;;;;29.16;62.78;101014.41;5062957;28;70314;-36
2022/12/11 02:10:17;;;;;;;22.00;14.20;;;;;;;29.42;63.21;101056.00;5060580;28;66443;-37
2022/12/11 02:12:56;;;;;;;16.38;14.68;;;;;;;29.46;63.00;101057.25;5058826;28;69233;-36
2022/12/11 02:15:41;;;;;;;19.13;13.75;;;;;;;29.38;62.95;101040.19;5056329;28;66447;-41
2022/12/11 02:18:29;;;;;;;15.93;14.00;;;;;;;29.50;63.08;101053.09;5055914;28;69572;-37
2022/12/11 02:21:01;;;;;;;16.35;12.27;;;;;;;29.58;62.84;101059.13;5051657;28;65653;-37
2022/12/11 02:23:38;;;;;;;19.20;12.90;;;;;;;29.60;63.32;101058.94;5053903;28;70502;-36
2022/12/11 02:26:47;;;;;;;17.88;12.88;;;;;;;29.11;62.87;100989.88;5053463;28;65838;-36
2022/12/11 02:29:33;;;;;;;14.48;12.43;;;;;;;29.64;63.81;101060.19;5070013;27;69234;-36
2022/12/11 02:32:14;;;;;;;14.63;13.07;;;;;;;29.69;63.13;101056.88;5052577;28;65501;-36
2022/12/11 02:34:57;;;;;;;17.75;13.15;;;;;;;29.67;63.35;101043.59;5054764;28;70065;-35
2022/12/11 02:37:32;;;;;;;17.75;12.63;;;;;;;29.73;63.29;101042.75;5052880;28;66800;-36
2022/12/11 02:40:08;;;;;;;14.95;12.20;;;;;;;29.32;63.02;100980.75;5054861;28;69111;-37
2022/12/11 02:42:42;;;;;;;14.63;12.10;;;;;;;29.78;62.83;101056.47;5052498;28;66037;-37
2022/12/11 02:45:15;;;;;;;17.73;12.45;;;;;;;29.78;62.90;101053.78;5055736;28;70416;-37
2022/12/11 02:47:48;;;;;;;14.00;12.13;;;;;;;29.47;63.25;100988.66;5060029;28;66511;-36
2022/12/11 02:50:22;;;;;;;14.13;11.75;;;;;;;29.82;63.12;101041.50;5056546;28;70604;-37
2022/12/11 02:52:56;;;;;;;12.25;11.07;;;;;;;29.86;62.82;101041.06;5052104;28;65319;-37
2022/12/11 02:55:29;;;;;;;12.75;11.57;;;;;;;29.86;62.66;101035.66;5053084;28;70410;-37
2022/12/11 02:58:04;;;;;;;17.63;10.88;;;;;;;29.46;63.31;100968.06;5050298;28;64942;-39
2022/12/11 03:00:35;;;;;;;11.55;10.43;;;;;;;29.92;63.12;101040.22;5056184;28;70135;-36
2022/12/11 03:03:07;;;;;;;14.15;10.95;;;;;;;29.92;62.85;101032.97;5053109;28;66970;-36
2022/12/11 03:05:39;;;;;;;11.43;10.35;;;;;;;29.97;63.04;101037.72;5057328;28;69029;-37
2022/12/11 03:08:10;;;;;;;13.95;12.07;;;;;;;29.98;63.44;101031.28;5056473;28;66161;-36
2022/12/11 03:10:41;;;;;;;12.17;10.80;;;;;;;29.91;62.97;101016.94;5051449;28;70289;-37
2022/12/11 03:13:16;;;;;;;13.35;11.68;;;;;;;29.96;62.85;101014.44;5056716;28;66649;-37
2022/12/11 03:16:06;;;;;;;14.30;10.82;;;;;;;30.06;62.74;101025.63;5053089;28;69505;-38
2022/12/11 03:19:00;;;;;;;23.60;13.35;;;;;;;29.90;65.11;101009.88;5053417;28;65705;-35
2022/12/11 03:21:38;;;;;;;27.73;13.30;;;;;;;29.51;64.96;100941.25;5054637;28;70354;-36
2022/12/11 03:24:20;;;;;;;20.10;12.73;;;;;;;29.98;65.66;101031.28;5049531;28;66635;-35
2022/12/11 03:27:00;;;;;;;26.73;13.15;;;;;;;29.91;66.13;101020.47;5055043;28;69859;-35
2022/12/11 03:29:46;;;;;;;21.83;12.43;;;;;;;29.93;65.96;101021.09;5052988;28;66611;-37
2022/12/11 03:32:22;;;;;;;18.10;11.85;;;;;;;29.51;66.18;100941.25;5049620;28;69539;-38
2022/12/11 03:35:04;;;;;;;18.15;11.93;;;;;;;29.84;66.44;101001.56;5052986;28;66273;-38
2022/12/11 03:37:36;;;;;;;;;;;;;;;29.69;67.61;101014.44;5052344;28;70636;-37
2022/12/11 03:40:14;;;;;;;15.23;11.77;;;;;;;29.88;66.84;101001.13;5054404;28;65709;-35
2022/12/11 03:42:50;;;;;;;11.40;10.25;;;;;;;29.92;66.83;100996.94;5055126;28;70861;-37
2022/12/11 03:45:24;;;;;;;15.20;11.77;;;;;;;29.98;66.63;100996.13;5053852;28;65674;-36
2022/12/11 03:47:59;;;;;;;21.02;10.80;;;;;;;29.64;66.68;100946.66;5055187;28;70522;-35
2022/12/11 03:50:33;;;;;;;13.90;10.95;;;;;;;29.65;66.87;100942.09;5051879;28;66520;-33
2022/12/11 03:53:05;;;;;;;18.58;11.15;;;;;;;30.05;66.89;100986.09;5049525;28;69610;-36
2022/12/11 03:55:38;;;;;;;14.25;10.57;;;;;;;29.86;67.02;100954.53;5052784;28;65781;-36
2022/12/11 03:58:10;;;;;;;15.93;11.20;;;;;;;30.08;66.94;100985.69;5055654;28;70309;-37
2022/12/11 04:00:42;;;;;;;16.73;10.77;;;;;;;30.09;67.19;100976.53;5054133;28;66653;-36
2022/12/11 04:03:14;;;;;;;12.83;10.20;;;;;;;30.07;67.17;100973.19;5055651;28;70146;-36
2022/12/11 04:05:48;;;;;;;11.48;10.45;;;;;;;29.96;66.97;100941.41;5055105;28;66207;-37
2022/12/11 04:08:21;;;;;;;13.85;11.63;;;;;;;29.97;66.98;100940.34;5055959;28;70275;-37
2022/12/11 04:16:46;;;;;;;63.28;28.25;;;;;;;30.15;66.70;100951.31;5046135;28;66550;-36
2022/12/11 04:25:01;;;;;;;68.63;31.25;;;;;;;29.46;66.87;100814.03;5050147;28;70725;-51
2022/12/11 04:27:48;;;;;;;66.07;28.88;;;;;;;30.25;66.77;100934.66;5054088;28;66541;-51
2022/12/11 04:30:25;;;;;;;60.10;28.92;;;;;;;30.26;66.18;100942.56;5056469;28;70093;-50
2022/12/11 04:33:03;;;;;;;56.72;28.35;;;;;;;30.26;66.21;100929.03;5051140;28;65944;-53
2022/12/11 04:35:35;;;;;;;58.47;26.43;;;;;;;30.26;66.79;100920.94;5051767;28;69297;-50
2022/12/11 04:38:07;;;;;;;53.63;26.05;;;;;;;30.14;66.28;100895.53;5052190;28;65802;-52
2022/12/11 04:40:38;;;;;;;45.80;25.50;;;;;;;30.31;66.09;100914.84;5051846;28;69520;-49
2022/12/11 04:43:09;;;;;;;36.93;22.83;;;;;;;30.22;66.33;100905.31;5052657;28;65737;-49
2022/12/11 04:45:40;;;;;;;49.22;22.67;;;;;;;30.34;66.00;100895.50;5051558;28;70584;-49
2022/12/11 04:48:11;;;;;;;31.85;19.38;;;;;;;30.42;65.79;100906.06;5050042;28;65711;-50
2022/12/11 04:50:43;;;;;;;34.27;18.93;;;;;;;30.46;65.69;100895.63;5072570;27;69192;-49
2022/12/11 04:53:14;;;;;;;29.13;18.45;;;;;;;30.53;65.07;100879.34;5055896;28;66108;-51
2022/12/11 04:55:45;;;;;;;30.80;17.65;;;;;;;30.55;64.86;100880.78;5055803;28;69947;-50
2022/12/11 04:58:17;;;;;;;25.00;17.50;;;;;;;30.62;64.69;100873.47;5060763;28;66043;-50
2022/12/11 05:00:48;;;;;;;24.25;17.73;;;;;;;30.63;64.66;100866.16;5048799;28;68623;-50
2022/12/11 05:03:19;;;;;;;32.33;17.23;;;;;;;30.66;64.70;100869.25;5059263;28;66388;-50
2022/12/11 05:05:52;;;;;;;23.20;16.37;;;;;;;30.38;64.06;100801.16;5055313;28;69167;-49
2022/12/11 05:08:24;;;;;;;27.92;18.20;;;;;;;30.40;64.30;100791.78;5056881;28;65730;-49
2022/12/11 05:11:07;;;;;;;35.27;19.17;;;;;;;30.73;66.69;100859.22;5053482;28;69730;-49
2022/12/11 05:13:38;;;;;;;35.03;19.90;;;;;;;30.73;65.07;100851.09;5050753;28;65706;-48
2022/12/11 05:16:13;;;;;;;28.38;17.98;;;;;;;30.69;63.44;100846.31;5054185;28;69955;-49
2022/12/11 05:18:46;;;;;;;33.78;17.98;;;;;;;30.59;62.07;100830.59;5053388;28;66334;-47
2022/12/11 05:21:17;;;;;;;29.13;17.35;;;;;;;30.61;60.11;100833.88;5057354;28;70472;-48
2022/12/11 05:23:48;;;;;;;28.57;16.80;;;;;;;30.61;59.51;100833.88;5056658;28;64238;-48
2022/12/11 05:26:20;;;;;;;33.13;16.27;;;;;;;30.45;58.23;100805.50;5053614;28;69844;-53
2022/12/11 05:28:53;;;;;;;25.43;15.47;;;;;;;30.17;58.09;100759.88;5057559;28;65938;-50
2022/12/11 05:31:27;;;;;;;21.92;15.40;;;;;;;30.47;57.81;100816.91;5050713;28;70015;-53
2022/12/11 05:33:58;;;;;;;17.48;14.38;;;;;;;30.50;56.62;100815.63;5050241;28;66481;-48
2022/12/11 05:36:34;;;;;;;27.90;14.13;;;;;;;30.52;56.52;100818.97;5051651;28;69307;-47
2022/12/11 05:39:05;;;;;;;20.48;13.70;;;;;;;30.45;56.29;100812.75;5059763;28;65676;-49
2022/12/11 05:41:36;;;;;;;16.77;12.52;;;;;;;30.38;55.76;100796.56;5060457;28;70379;-48
2022/12/11 05:44:12;;;;;;;15.57;13.23;;;;;;;30.45;54.32;100818.16;5058702;28;65344;-50
2022/12/11 05:46:43;;;;;;;20.45;12.90;;;;;;;30.36;54.61;100793.25;5069748;27;69750;-46
2022/12/11 05:49:15;;;;;;;17.40;13.03;;;;;;;30.29;53.83;100776.25;5053490;28;65271;-51
2022/12/11 05:51:49;;;;;;;15.50;12.10;;;;;;;30.42;53.92;100794.25;5049574;28;70286;-50
2022/12/11 05:54:20;;;;;;;12.43;11.27;;;;;;;30.41;53.35;100784.50;5050555;28;66219;-51
2022/12/11 05:56:51;;;;;;;15.80;11.57;;;;;;;30.25;52.68;100759.59;5057482;28;70113;-52
2022/12/11 05:59:22;;;;;;;16.53;11.67;;;;;;;30.32;52.28;100772.28;5059778;28;66266;-55
2022/12/11 06:01:53;;;;;;;24.47;11.47;;;;;;;30.40;53.14;100767.44;5053606;28;69407;-51
2022/12/11 06:04:25;;;;;;;12.82;10.80;;;;;;;30.39;52.19;100754.91;5051630;28;65303;-53
2022/12/11 06:06:56;;;;;;;15.00;10.90;;;;;;;30.45;52.31;100753.22;5052465;28;70554;-49
2022/12/11 06:09:27;;;;;;;14.20;10.90;;;;;;;30.34;51.44;100732.28;5054782;28;65503;-56
2022/12/11 06:11:58;;;;;;;12.63;10.27;;;;;;;30.36;50.89;100738.31;5056388;28;70340;-54
2022/12/11 06:14:30;;;;;;;13.80;10.53;;;;;;;30.20;51.35;100716.13;5056650;28;65540;-49
2022/12/11 06:17:01;;;;;;;11.10;9.80;;;;;;;30.16;50.31;100701.38;5055229;28;70318;-51
2022/12/11 06:19:32;;;;;;;13.85;10.30;;;;;;;30.04;50.19;100671.50;5055956;28;65740;-49
2022/12/11 06:22:05;;;;;;;11.18;9.60;;;;;;;30.38;50.00;100726.22;5051673;28;69578;-51
2022/12/11 06:24:37;;;;;;;11.10;9.93;;;;;;;30.32;50.13;100710.03;5058450;28;65363;-52
2022/12/11 06:27:08;;;;;;;10.45;9.20;;;;;;;30.38;49.85;100706.44;5058371;28;69728;-59
2022/12/11 06:29:40;;;;;;;9.88;9.07;;;;;;;30.37;49.73;100707.47;5055992;28;65667;-58
2022/12/11 06:32:11;;;;;;;10.27;9.33;;;;;;;30.35;48.76;100707.72;5054186;28;69931;-52
2022/12/11 06:34:42;;;;;;;9.90;8.67;;;;;;;30.36;48.96;100693.13;5057173;28;66426;-53
2022/12/11 06:37:13;;;;;;;10.97;9.90;;;;;;;30.36;48.98;100695.00;5055166;28;70171;-54
2022/12/11 06:39:45;;;;;;;9.35;8.75;;;;;;;30.36;48.44;100684.19;5062923;28;66638;-55
2022/12/11 06:42:16;;;;;;;9.87;8.97;;;;;;;30.28;48.70;100678.00;5059345;28;69936;-53
2022/12/11 06:44:47;;;;;;;9.43;8.40;;;;;;;30.35;47.46;100687.94;5059810;28;66801;-52
2022/12/11 06:47:18;;;;;;;9.45;8.10;;;;;;;30.35;47.52;100680.66;5053315;28;71007;-52
2022/12/11 06:49:50;;;;;;;8.82;8.13;;;;;;;30.25;47.08;100670.31;5059563;28;66893;-52
2022/12/11 06:52:23;;;;;;;9.38;8.57;;;;;;;30.04;46.45;100627.41;5058530;28;70971;-54
2022/12/11 06:54:54;;;;;;;9.70;8.82;;;;;;;30.39;47.57;100681.03;5058150;28;65816;-49
2022/12/11 06:57:26;;;;;;;10.65;8.27;;;;;;;30.25;46.78;100667.59;5051730;28;70526;-51
2022/12/11 06:59:57;;;;;;;15.15;8.10;;;;;;;30.33;46.57;100668.41;5057696;28;66072;-51
2022/12/11 07:02:28;;;;;;;16.88;8.38;;;;;;;30.27;47.26;100646.56;5054517;28;70516;-50
2022/12/11 07:04:59;;;;;;;14.83;8.13;;;;;;;30.30;46.73;100652.59;5056301;28;66831;-50
2022/12/11 07:07:31;;;;;;;9.43;7.95;;;;;;;30.34;46.50;100659.22;5056143;28;69933;-54
2022/12/11 07:10:02;;;;;;;8.33;7.50;;;;;;;30.30;45.70;100649.91;5061536;28;65365;-53
2022/12/11 07:12:38;;;;;;;8.48;7.68;;;;;;;30.33;45.63;100662.97;5057524;28;69577;-53
2022/12/11 07:15:09;;;;;;;11.57;7.68;;;;;;;30.34;45.49;100653.81;5055764;28;66687;-55
2022/12/11 07:17:40;;;;;;;;;;;;;;;30.10;45.97;100658.97;5056511;28;70993;-51
2022/12/11 07:20:12;;;;;;;8.55;7.57;;;;;;;30.34;45.30;100651.09;5061733;28;65954;-49
2022/12/11 07:22:43;;;;;;;15.80;7.32;;;;;;;30.32;45.23;100650.50;5060932;28;69261;-51
2022/12/11 07:25:14;;;;;;;;;;;;;;;30.11;45.60;100649.81;5058650;28;64523;-49
2022/12/11 07:27:46;;;;;;;7.22;6.70;;;;;;;30.32;45.05;100647.81;5056457;28;70685;-51
2022/12/11 07:30:17;;;;;;;11.80;7.83;;;;;;;30.33;44.98;100641.34;5056396;28;66914;-50
2022/12/11 07:32:49;;;;;;;10.27;7.45;;;;;;;30.32;44.69;100634.28;5057329;28;70816;-52
2022/12/11 07:35:20;;;;;;;11.00;7.40;;;;;;;30.20;46.03;100621.44;5055755;28;66370;-47
2022/12/11 07:37:52;;;;;;;7.68;6.68;;;;;;;30.29;45.33;100635.53;5048015;28;70231;-46
2022/12/11 07:40:23;;;;;;;9.03;7.13;;;;;;;30.30;44.75;100639.06;5053948;28;66364;-48
2022/12/11 07:42:54;;;;;;;10.00;7.20;;;;;;;30.31;44.81;100638.84;5045253;28;70307;-49
2022/12/11 07:45:26;;;;;;;9.80;6.60;;;;;;;30.31;44.20;100627.19;5055859;28;66454;-51
2022/12/11 07:47:57;;;;;;;8.00;6.90;;;;;;;30.22;44.06;100624.75;5049713;28;69881;-48
2022/12/11 07:50:28;;;;;;;;;;;;;;;30.06;44.68;100630.69;5051324;28;65576;-49
2022/12/11 07:53:06;;;;;;;19.08;6.93;;;;;;;30.25;44.12;100616.19;5053453;28;68945;-49
2022/12/11 07:55:37;;;;;;;6.57;6.07;;;;;;;30.22;44.64;100608.53;5054980;28;66710;-50
2022/12/11 07:58:08;;;;;;;9.13;7.13;;;;;;;30.06;44.63;100580.16;5048403;28;70383;-48
2022/12/11 08:00:40;;;;;;;14.20;7.00;;;;;;;30.31;44.20;100619.06;5051798;28;66336;-48
2022/12/11 08:03:11;;;;;;;11.07;6.40;;;;;;;30.38;44.82;100633.38;5049091;28;70639;-49
2022/12/11 08:05:51;;;;;;;10.48;6.28;;;;;;;30.27;44.04;100611.41;5054731;28;65776;-50
2022/12/11 08:08:22;;;;;;;13.55;7.22;;;;;;;30.43;44.00;100620.00;5052559;28;70645;-54
2022/12/11 08:10:53;;;;;;;28.55;7.47;;;;;;;30.56;45.01;100633.38;5055515;28;66264;-54
2022/12/11 08:13:25;;;;;;;24.30;7.90;;;;;;;30.64;45.99;100624.97;5042407;28;70419;-52
2022/12/11 08:15:56;;;;;;;21.97;7.23;;;;;;;30.74;45.79;100624.47;5053699;28;65749;-52
2022/12/11 08:18:27;;;;;;;11.70;7.13;;;;;;;30.81;47.07;100625.22;5059501;28;69169;-58
2022/12/11 08:20:59;;;;;;;12.43;6.93;;;;;;;30.92;47.16;100623.66;5053849;28;65946;-59
2022/12/11 08:23:30;;;;;;;17.33;6.85;;;;;;;30.98;47.98;100625.47;5049624;28;70128;-60
2022/12/11 08:26:10;;;;;;;17.60;6.97;;;;;;;31.04;47.64;100627.28;5054442;28;66103;-59
2022/12/11 08:28:42;;;;;;;9.32;7.63;;;;;;;31.09;47.87;100630.13;5049491;28;70381;-59
2022/12/11 08:31:17;;;;;;;8.45;7.57;;;;;;;31.15;47.72;100628.38;5058428;28;66119;-58
2022/12/11 08:33:50;;;;;;;13.00;8.07;;;;;;;31.22;48.28;100622.88;5054315;28;69633;-60
2022/12/11 08:36:22;;;;;;;;;;;;;;;31.01;48.81;100622.31;5059540;27;66874;-59
2022/12/11 08:38:55;;;;;;;13.67;7.70;;;;;;;30.77;48.22;100541.97;5055919;28;69863;-58
2022/12/11 08:41:29;;;;;;;10.15;8.02;;;;;;;31.34;48.14;100621.88;5062675;27;65885;-58
2022/12/11 08:44:00;;;;;;;9.55;8.52;;;;;;;31.38;48.68;100628.50;5059082;28;69328;-59
2022/12/11 08:46:34;;;;;;;12.57;8.15;;;;;;;31.36;48.84;100624.38;5055240;28;66659;-59
2022/12/11 08:49:06;;;;;;;12.80;8.35;;;;;;;31.44;49.07;100629.47;5050141;28;69134;-58
2022/12/11 08:51:37;;;;;;;12.40;8.60;;;;;;;31.47;49.13;100626.28;5052294;28;66833;-57
2022/12/11 08:54:10;;;;;;;9.82;8.80;;;;;;;31.50;49.39;100642.09;5053211;28;70269;-59
2022/12/11 08:56:42;;;;;;;11.18;8.13;;;;;;;31.53;49.60;100638.91;5053960;28;66660;-60
2022/12/11 08:59:14;;;;;;;17.40;8.82;;;;;;;31.55;49.70;100644.13;5056559;28;69984;-59
2022/12/11 09:02:03;;;;;;;11.48;8.95;;;;;;;31.56;49.96;100649.31;5053192;28;65840;-61
2022/12/11 09:04:35;;;;;;;9.45;8.45;;;;;;;31.61;50.27;100654.88;5051785;28;69310;-55
2022/12/11 09:07:06;;;;;;;10.73;8.45;;;;;;;31.57;51.13;100653.69;5041814;28;65978;-56
2022/12/11 09:09:38;;;;;;;15.30;9.73;;;;;;;31.53;53.18;100652.47;5054131;28;69316;-57
2022/12/11 09:12:09;;;;;;;;;;;;;;;31.39;55.56;100667.28;5052426;28;66614;-55
2022/12/11 09:14:40;;;;;;;14.73;9.65;;;;;;;31.61;55.52;100665.72;5059965;28;70001;-53
2022/12/11 09:17:12;;;;;;;19.55;10.45;;;;;;;31.37;56.15;100631.44;5063014;28;65868;-52
2022/12/11 09:19:44;;;;;;;11.60;9.80;;;;;;;31.74;57.96;100685.56;5039622;28;70181;-53
2022/12/11 09:22:15;;;;;;;16.52;10.55;;;;;;;31.68;60.17;100686.47;5055454;28;66545;-54
2022/12/11 09:24:47;;;;;;;32.38;11.50;;;;;;;31.45;60.70;100654.69;5071923;27;68929;-59
2022/12/11 09:27:20;;;;;;;23.10;11.68;;;;;;;31.53;61.50;100690.44;5057310;28;65999;-55
2022/12/11 09:29:51;;;;;;;26.75;11.43;;;;;;;31.50;61.68;100695.50;5062836;28;68767;-56
2022/12/11 09:32:22;;;;;;;;;;;;;;;31.22;62.09;100698.75;5058833;28;65765;-57
2022/12/11 09:34:54;;;;;;;19.90;10.68;;;;;;;31.38;62.24;100692.75;5036147;28;70076;-54
2022/12/11 09:37:25;;;;;;;21.38;10.73;;;;;;;31.38;62.54;100709.00;5060488;28;66226;-56
2022/12/11 09:39:57;;;;;;;13.93;8.52;;;;;;;31.36;62.41;100700.25;5057150;28;70641;-51
2022/12/11 09:43:08;;;;;;;22.20;9.73;;;;;;;31.21;62.90;100697.91;5058589;28;66092;-54
2022/12/11 09:45:40;;;;;;;17.40;8.93;;;;;;;31.29;63.44;100704.91;5072579;27;69134;-51
2022/12/11 09:48:18;;;;;;;27.58;10.27;;;;;;;31.31;63.84;100713.63;5060050;28;64374;-51
2022/12/11 09:50:54;;;;;;;39.60;10.40;;;;;;;31.27;63.98;100715.97;5050186;28;70352;-56
2022/12/11 09:53:36;;;;;;;24.63;9.93;;;;;;;31.25;63.96;100714.53;5059871;28;65995;-54
2022/12/11 09:56:31;;;;;;;28.77;9.63;;;;;;;31.15;64.04;100715.91;5053218;28;71028;-53
2022/12/11 09:59:11;;;;;;;18.23;8.32;;;;;;;31.23;63.72;100728.34;5057879;28;65734;-53
2022/12/11 10:01:53;;;;;;;15.73;8.77;;;;;;;31.22;63.65;100726.66;5053333;28;70221;-52
2022/12/11 10:04:35;;;;;;;20.33;8.30;;;;;;;31.19;63.74;100731.72;5038751;28;66795;-51
2022/12/11 10:07:38;;;;;;;19.05;9.02;;;;;;;31.25;63.34;100720.78;5056111;28;70228;-51
2022/12/11 10:10:42;;;;;;;14.95;8.65;;;;;;;31.27;63.50;100726.81;5051772;28;65697;-54
2022/12/11 10:13:49;;;;;;;17.98;8.57;;;;;;;31.29;63.16;100726.59;5053989;28;69971;-53
2022/12/11 10:16:43;;;;;;;10.27;7.63;;;;;;;31.34;62.15;100732.16;5053736;28;66570;-53
2022/12/11 10:19:26;;;;;;;10.43;7.05;;;;;;;31.09;61.63;100667.19;5054453;28;69915;-52
2022/12/11 10:22:00;;;;;;;15.13;8.27;;;;;;;31.54;61.43;100735.47;5053046;28;65367;-52
2022/12/11 10:24:55;;;;;;;10.95;7.95;;;;;;;31.08;61.33;100666.38;5055870;28;69455;-54
2022/12/11 10:27:40;;;;;;;10.25;7.03;;;;;;;31.21;60.80;100680.84;5068348;27;66640;-53
2022/12/11 10:30:19;;;;;;;13.52;7.63;;;;;;;31.63;61.20;100744.13;5055354;28;69575;-54
2022/12/11 10:33:02;;;;;;;15.38;7.40;;;;;;;31.32;60.53;100688.19;5058071;28;66001;-54
2022/12/11 10:35:43;;;;;;;9.73;6.85;;;;;;;31.67;60.95;100755.34;5050393;28;70201;-52
2022/12/11 10:38:27;;;;;;;12.73;6.65;;;;;;;31.64;60.68;100758.50;5054407;28;66420;-53
2022/12/11 10:41:10;;;;;;;8.57;7.18;;;;;;;31.19;60.95;100691.91;5051143;28;70518;-53
2022/12/11 10:43:44;;;;;;;11.68;7.05;;;;;;;31.71;60.50;100767.41;5055228;28;66288;-54
2022/12/11 10:46:18;;;;;;;11.57;7.32;;;;;;;31.73;60.19;100759.84;5047295;28;70038;-53
2022/12/11 10:48:52;;;;;;;7.55;6.70;;;;;;;31.39;60.26;100716.88;5052406;28;65209;-54
2022/12/11 10:51:41;;;;;;;13.23;7.00;;;;;;;31.61;60.54;100768.75;5051125;28;70572;-55
2022/12/11 10:54:37;;;;;;;10.23;6.93;;;;;;;31.53;60.56;100760.94;5054929;28;65558;-53
2022/12/11 10:57:13;;;;;;;7.13;6.43;;;;;;;31.71;60.12;100783.66;5050653;28;69634;-52
2022/12/11 10:59:49;;;;;;;10.40;6.40;;;;;;;31.44;60.50;100734.38;5046494;28;65201;-53
2022/12/11 11:02:31;;;;;;;7.47;6.38;;;;;;;31.69;60.44;100780.34;5056223;28;69505;-54
2022/12/11 11:05:16;;;;;;;9.70;6.57;;;;;;;31.60;60.25;100764.38;5052685;28;66837;-53
2022/12/11 11:07:47;;;;;;;7.95;6.95;;;;;;;31.70;60.11;100782.00;5048057;28;70100;-54
2022/12/11 11:10:20;;;;;;;11.93;7.45;;;;;;;31.45;60.17;100726.00;5052268;28;66464;-56
2022/12/11 11:13:00;;;;;;;17.35;7.55;;;;;;;31.68;60.47;100778.69;5054634;28;70426;-51
2022/12/11 11:15:32;;;;;;;9.50;7.60;;;;;;;31.73;60.33;100781.53;5057166;28;65738;-54
2022/12/11 11:18:16;;;;;;;8.52;7.57;;;;;;;31.57;60.79;100766.75;5058973;28;70538;-55
2022/12/11 11:20:48;;;;;;;8.80;7.45;;;;;;;31.68;61.39;100784.09;5059633;28;65290;-55
2022/12/11 11:23:21;;;;;;;8.93;7.07;;;;;;;31.50;60.70;100755.97;5049096;28;70209;-57
2022/12/11 11:25:59;;;;;;;12.70;7.15;;;;;;;31.31;61.07;100732.59;5055993;28;65701;-53
2022/12/11 11:28:40;;;;;;;8.93;8.23;;;;;;;31.56;61.22;100778.63;5060091;27;69509;-55
2022/12/11 11:31:14;;;;;;;15.30;7.78;;;;;;;31.20;61.02;100728.75;5044237;28;66291;-55
2022/12/11 11:33:54;;;;;;;9.23;7.75;;;;;;;31.60;60.91;100788.78;5048174;28;70312;-53
2022/12/11 11:36:28;;;;;;;8.77;7.25;;;;;;;31.54;60.61;100795.13;5039959;28;65341;-54
2022/12/11 11:39:25;;;;;;;10.65;7.93;;;;;;;31.53;60.65;100803.47;5052166;28;70283;-56
2022/12/11 11:42:09;;;;;;;12.70;7.57;;;;;;;31.58;60.62;100818.00;5036888;28;66254;-53
2022/12/11 11:44:57;;;;;;;15.25;7.82;;;;;;;30.79;60.92;100694.22;5052669;28;70401;-54
2022/12/11 11:47:36;;;;;;;9.63;7.47;;;;;;;31.48;61.02;100812.31;5050414;28;66955;-53
2022/12/11 11:50:26;;;;;;;15.93;8.93;;;;;;;31.39;60.97;100814.47;5049006;28;69597;-54
2022/12/11 11:53:02;;;;;;;15.55;8.70;;;;;;;30.92;61.37;100740.97;5052954;28;67204;-53
2022/12/11 11:56:02;;;;;;;15.20;8.57;;;;;;;31.25;61.15;100820.22;5050227;28;70176;-56
2022/12/11 11:59:03;;;;;;;12.00;9.25;;;;;;;31.38;61.46;100833.69;5052374;28;66283;-54
2022/12/11 12:01:35;;;;;;;10.55;9.48;;;;;;;31.40;61.05;100831.59;5046645;28;70505;-55
2022/12/11 12:04:07;;;;;;;17.10;9.35;;;;;;;31.35;60.91;100829.50;5051790;28;65366;-55
2022/12/11 12:07:03;;;;;;;12.43;9.93;;;;;;;31.38;60.71;100839.94;5052182;28;69704;-56